U.S. Weather Extremes for
Sunday, June 24, 2018

High Temperature


108°F at Midland/Rgnl, TX
108°F at Lubbock/Intl, TX
108°F at China Lake (naf), CA
108°F at Needles Airport, CA
108°F at Wink/Winkler Co, TX
108°F at Palm Springs Rgnl, CA

Low Temperature


32°F at Yellowstone (ramos), WY

High Precipitation


3.83in at Gage/Muni, OK


Data for lower 48 states and courtesy of
NWS-CPC

North Georgia & Southern Appalachians METAR Reports

KDZJ - Blairsville, Georgia, USA
Distance from station: NNW 11mi, 18km
Updated: Mon, 25-Jun-2018 8:55am CDT
Clear
Clear
 Wind from calm
Wind:
Calm
Temperature: 73°F , 23°C
Dew Point: 70°F , 21°C
Humidity: 89%
Barometer: 30.18 inHg , 1022 hPa
Clouds: Clear
Visibility: 10 miles , 16 km
2018/06/25 13:55 KDZJ 251355Z AUTO 00000KT 10SM CLR 23/21 A3018 RMK AO2 T02340209
KAJR - Cornelia, Georgia, USA
Distance from station: SE 25mi, 41km
Updated: Mon, 25-Jun-2018 8:55am CDT
Clear
Clear
 Wind from WNW
Wind:
WNW 3 mph 6 km/h
Temperature: 79°F , 26°C
Dew Point: 77°F , 25°C
Humidity: 94%
Barometer: 30.13 inHg , 1020.3 hPa
Clouds: Clear
Visibility: 10 miles , 16 km
2018/06/25 13:55 KAJR 251355Z AUTO 29003KT 10SM CLR 26/25 A3013 RMK AO2 T02610245
 
KGVL - Gainesville, Georgia, USA
Distance from station: S 31mi, 50km
Updated: Mon, 25-Jun-2018 8:53am CDT
Clear
Clear
 Wind from NW
Wind:
NW 7 mph 11 km/h
Temperature: 82°F , 28°C
Heat Index: 86°F , 30°C
Dew Point: 72°F , 22°C
Humidity: 70%
Barometer: 30.14 inHg , 1020.7 hPa
Clouds: Clear
Visibility: 10 miles , 16 km
2018/06/25 13:53 KGVL 251353Z AUTO 32006KT 10SM CLR 28/22 A3014 RMK AO2 SLP191 T02830222
KRHP - Andrews, North Carolina, USA
Distance from station: N 33mi, 53km
Updated: Mon, 25-Jun-2018 8:55am CDT
Clear
Clear
 Wind from calm
Wind:
Calm
Temperature: 73°F , 23°C
Dew Point: 70°F , 21°C
Humidity: 89%
Barometer: 30.18 inHg , 1022 hPa
Clouds: Clear
Visibility: 10 miles , 16 km
2018/06/25 13:55 KRHP 251355Z AUTO 00000KT 10SM CLR 23/21 A3018 RMK AO2 T02310212
 
KJZP - Jasper, Georgia, USA
Distance from station: WSW 35mi, 57km
Updated: Mon, 25-Jun-2018 8:55am CDT
Clear
Clear
 Wind from calm
Wind:
Calm
Temperature: 21°F , -6°C
Dew Point: 14°F , -10°C
Humidity: 74%
Barometer: 30.18 inHg , 1022 hPa
Clouds: Clear
Visibility: 10 miles , 16 km
2018/06/25 13:55 KJZP 251355Z AUTO 00000KT 10SM CLR M06/M10 A3018 RMK AO2 T10601105 PNO
KTOC - Toccoa, Georgia, USA
Distance from station: E 36mi, 58km
Updated: Mon, 25-Jun-2018 8:55am CDT
Clear
Clear
 Wind from calm
Wind:
Calm
Temperature: 82°F , 28°C
Heat Index: 87°F , 31°C
Dew Point: 73°F , 23°C
Humidity: 74%
Barometer: 30.11 inHg , 1019.6 hPa
Clouds: Clear
Visibility: 10 miles , 16 km
2018/06/25 13:55 KTOC 251355Z AUTO 00000KT 10SM CLR 28/23 A3011 RMK AO2 T02830226
 
KCNI - Canton/Cherokee, Georgia, USA
Distance from station: SW 39mi, 63km
Updated: Mon, 25-Jun-2018 8:55am CDT
Clear
Clear
 Wind from calm
Wind:
Calm
Temperature: 81°F , 27°C
Heat Index: 85°F , 29°C
Dew Point: 70°F , 21°C
Humidity: 70%
Barometer: 30.15 inHg , 1021 hPa
Clouds: Clear
Visibility: 10 miles , 16 km
2018/06/25 13:55 KCNI 251355Z AUTO 00000KT 10SM CLR 27/21 A3015 RMK AO2
KJCA - Jefferson, Georgia, USA
Distance from station: SSE 41mi, 67km
Updated: Mon, 25-Jun-2018 8:55am CDT
Clear
Clear
 Wind from NNW
Wind:
NNW 3 mph 6 km/h
Temperature: 82°F , 28°C
Heat Index: 87°F , 31°C
Dew Point: 73°F , 23°C
Humidity: 74%
Barometer: 30.12 inHg , 1020 hPa
Clouds: Clear
Visibility: 10 miles , 16 km
2018/06/25 13:55 KJCA 251355Z AUTO 33003KT 10SM CLR 28/23 A3012 RMK AO2 T02800229
 
K1A5 - Macon/Franklin, North Carolina, USA
Distance from station: NE 45mi, 73km
Updated: Wed, 20-Jun-2018 9:05am CDT
NOT Current
Clear
Clear
 Wind from N
Wind:
N 6 mph 9 km/h
Temperature: 79°F , 26°C
Dew Point: 68°F , 20°C
Humidity: 70%
Barometer: 30.06 inHg , 1017.9 hPa
Clouds: Clear
Visibility: 10 miles , 16 km
2018/06/20 14:05 K1A5 201405Z AUTO 36005KT 10SM CLR 26/20 A3006 RMK AO2 T02550197
KLZU - Lawrenceville, Georgia, USA
Distance from station: S 50mi, 81km
Updated: Mon, 25-Jun-2018 8:56am CDT
Clear
Clear
 Wind from WSW
Wind:
WSW 7 mph 11 km/h
Temperature: 84°F , 29°C
Heat Index: 90°F , 32°C
Dew Point: 73°F , 23°C
Humidity: 70%
Barometer: 30.12 inHg , 1020 hPa
Clouds: Clear
Visibility: 10 miles , 16 km
2018/06/25 13:56 KLZU 251356Z 25006KT 10SM CLR 29/23 A3012 RMK AO2 SLP198 T02890228
 
K18A - Canon/Franklin, Georgia, USA
Distance from station: ESE 51mi, 82km
Updated: Mon, 25-Jun-2018 8:55am CDT
Clear
Clear
 Wind from calm
Wind:
Calm
Temperature: 81°F , 27°C
Heat Index: 85°F , 29°C
Dew Point: 72°F , 22°C
Humidity: 74%
Barometer: 30.11 inHg , 1019.6 hPa
Clouds: Clear
Visibility: 10 miles , 16 km
2018/06/25 13:55 K18A 251355Z AUTO 00000KT 10SM CLR 27/22 A3011 RMK AO2 T02690220
KWDR - Winder/Barrow, Georgia, USA
Distance from station: SSE 52mi, 84km
Updated: Mon, 25-Jun-2018 8:55am CDT
Clear
Clear
 Wind from calm
Wind:
Calm
Temperature: 84°F , 29°C
Heat Index: 92°F , 33°C
Dew Point: 75°F , 24°C
Humidity: 74%
Barometer: 30.14 inHg , 1020.7 hPa
Clouds: Clear
Visibility: 10 miles , 16 km
2018/06/25 13:55 KWDR 251355Z AUTO 00000KT 10SM CLR 29/24 A3014 RMK AO1 LTG DSNT NW
 
KDNN - Dalton, Georgia, USA
Distance from station: W 54mi, 87km
Updated: Mon, 25-Jun-2018 8:55am CDT
Clear
Clear
 Wind from calm
Wind:
Calm
Temperature: 79°F , 26°C
Dew Point: 72°F , 22°C
Humidity: 79%
Barometer: 30.14 inHg , 1020.7 hPa
Clouds: Clear
2018/06/25 13:55 KDNN 251355Z AUTO 00000KT CLR 26/22 A3014 RMK AO2 PWINO
K24A - Sylva, North Carolina, USA
Distance from station: NE 58mi, 93km
Updated: Mon, 25-Jun-2018 8:55am CDT
Nearby thunderstorm, Mostly cloudy
Nearby thunderstorm, Mostly cloudy
 Wind from calm
Wind:
Calm
Temperature: 66°F , 19°C
Dew Point: 64°F , 18°C
Humidity: 94%
Barometer: 30.23 inHg , 1023.7 hPa
Summary: Nearby Thunderstorm
Clouds: Mostly Cloudy
Visibility: 10 miles , 16 km
Cloud details: Mostly Cloudy 300 ft
2018/06/25 13:55 K24A 251355Z AUTO 00000KT 10SM VCTS BKN003 19/18 A3023 RMK AO2 LTG DSNT NW T01870184
 
KCEU - Clemson, South Carolina, USA
Distance from station: E 59mi, 95km
Updated: Mon, 25-Jun-2018 8:54am CDT
Clear
Clear
 Wind from calm
Wind:
Calm
Temperature: 81°F , 27°C
Heat Index: 85°F , 29°C
Dew Point: 70°F , 21°C
Humidity: 70%
Barometer: 30.11 inHg , 1019.6 hPa
Clouds: Clear
Visibility: 10 miles , 16 km
2018/06/25 13:54 KCEU 251354Z AUTO 00000KT 10SM CLR 27/21 A3011 RMK AO2 SLP184 T02670206
KMMI - Athens/Mcminn, Tennessee, USA
Distance from station: NW 60mi, 97km
Updated: Mon, 25-Jun-2018 8:55am CDT
Clear
Clear
 Wind from calm
Wind:
Calm
Temperature: 77°F , 25°C
Dew Point: 72°F , 22°C
Humidity: 83%
Barometer: 30.14 inHg , 1020.7 hPa
Clouds: Clear
Visibility: 10 miles , 16 km
2018/06/25 13:55 KMMI 251355Z AUTO 00000KT 10SM CLR 25/22 A3014 RMK A01
 
KCZL - Calhoun, Georgia, USA
Distance from station: WSW 61mi, 97km
Updated: Fri, 18-May-2018 6:55pm CDT
NOT Current
Clear
Clear
 Wind from calm
Wind:
Calm
Temperature: 75°F , 24°C
Dew Point: 66°F , 19°C
Humidity: 74%
Barometer: 29.89 inHg , 1012.2 hPa
Clouds: Clear
Visibility: 10 miles , 16 km
2018/05/18 23:55 KCZL 182355Z AUTO 00000KT 10SM CLR 24/19 A2989 RMK AO2 T02360194 10296 20236
KPDK - Peachtree/Dekalb, Georgia, USA
Distance from station: SSW 61mi, 98km
Updated: Mon, 25-Jun-2018 8:53am CDT
Clear
Clear
 Wind from SW
Wind:
SW 7 mph 11 km/h
Temperature: 84°F , 29°C
Heat Index: 89°F , 32°C
Dew Point: 72°F , 22°C
Humidity: 66%
Barometer: 30.11 inHg , 1019.6 hPa
Clouds: Clear
Visibility: 10 miles , 16 km
2018/06/25 13:53 KPDK 251353Z 22006KT 10SM CLR 29/22 A3011 RMK AO2 SLP174 T02940222
 
KRZR - Cleveland Reg., Tennessee, USA
Distance from station: NW 61mi, 98km
Updated: Mon, 25-Jun-2018 8:55am CDT
Clear
Clear
 Wind from varies
Wind:
varies 3 mph 6 km/h
Temperature: 79°F , 26°C
Dew Point: 72°F , 22°C
Humidity: 79%
Barometer: 30.11 inHg , 1019.6 hPa
Clouds: Clear
Visibility: 10 miles , 16 km
2018/06/25 13:55 KRZR 251355Z AUTO VRB03KT 10SM CLR 26/22 A3011 RMK A01
KRYY - Marietta Mccolum, Georgia, USA
Distance from station: SW 62mi, 99km
Updated: Mon, 25-Jun-2018 7:48am CDT
NOT Current
Clear
Clear
 Wind from calm
Wind:
Calm
Temperature: 79°F , 26°C
Dew Point: 73°F , 23°C
Humidity: 84%
Barometer: 30.11 inHg , 1019.6 hPa
Clouds: Clear
Visibility: 10 miles , 16 km
2018/06/25 12:48 KRYY 251248Z 00000KT 10SM CLR 26/23 A3011 RMK AO2 SLP915 T02610228

Metar display script from Saratoga-Weather.org